createdAt,value
2022-09-15T00:00:32.850Z,83.31
2022-09-15T00:02:59.752Z,83.78
2022-09-15T00:05:26.619Z,84.75
2022-09-15T00:07:53.456Z,84.41
2022-09-15T00:10:20.705Z,83.88
2022-09-15T00:12:47.392Z,84.41
2022-09-15T00:15:15.678Z,84.79
2022-09-15T00:17:47.759Z,84.97
2022-09-15T00:20:14.707Z,85.36
2022-09-15T00:22:41.380Z,84.95
2022-09-15T00:25:08.615Z,85.02
2022-09-15T00:27:35.337Z,84.49
2022-09-15T00:30:02.167Z,84.51
2022-09-15T00:32:30.124Z,84.86
2022-09-15T00:34:57.201Z,85.50
2022-09-15T00:37:24.272Z,85.11
2022-09-15T00:39:51.302Z,85.16
2022-09-15T00:42:20.379Z,85.33
2022-09-15T00:44:57.063Z,85.24
2022-09-15T00:47:28.247Z,85.48
2022-09-15T00:50:03.879Z,85.78
2022-09-15T00:52:49.445Z,85.32
2022-09-15T00:55:22.532Z,85.42
2022-09-15T00:58:08.336Z,85.92
2022-09-15T01:00:35.265Z,86.65
2022-09-15T01:03:03.289Z,87.00
2022-09-15T01:05:35.341Z,86.96
2022-09-15T01:08:04.964Z,86.65
2022-09-15T01:10:38.033Z,86.52
2022-09-15T01:13:07.641Z,85.98
2022-09-15T01:15:47.757Z,86.10
2022-09-15T01:18:47.176Z,86.78
2022-09-15T01:21:46.672Z,85.93
2022-09-15T01:24:31.621Z,85.12
2022-09-15T01:27:40.590Z,85.86
2022-09-15T01:30:17.450Z,85.77
2022-09-15T01:33:04.177Z,85.59
2022-09-15T01:35:42.790Z,85.63
2022-09-15T01:38:54.320Z,85.10
2022-09-15T01:41:33.405Z,84.82
2022-09-15T01:44:09.652Z,85.57
2022-09-15T01:46:42.969Z,85.43
2022-09-15T01:49:15.028Z,85.55
2022-09-15T01:51:43.852Z,85.86
2022-09-15T01:54:13.219Z,85.26
2022-09-15T01:56:42.253Z,84.88
2022-09-15T01:59:11.297Z,84.40
2022-09-15T02:01:52.315Z,83.91
2022-09-15T02:04:31.128Z,84.01
2022-09-15T02:07:08.338Z,83.96
2022-09-15T02:09:57.495Z,84.28
2022-09-15T02:12:56.386Z,84.38
2022-09-15T02:15:30.649Z,84.54
2022-09-15T02:17:59.285Z,84.54
2022-09-15T02:20:33.326Z,85.06
2022-09-15T02:23:08.565Z,85.17
2022-09-15T02:25:42.325Z,85.00
2022-09-15T02:28:11.900Z,85.36
2022-09-15T02:30:42.246Z,85.21
2022-09-15T02:33:19.851Z,85.05
2022-09-15T02:35:47.491Z,85.65
2022-09-15T02:38:15.269Z,85.71
2022-09-15T02:40:44.208Z,85.66
2022-09-15T02:43:13.940Z,85.57
2022-09-15T02:45:41.146Z,85.80
2022-09-15T02:48:11.800Z,85.87
2022-09-15T02:50:39.628Z,85.82
2022-09-15T02:53:06.365Z,85.39
2022-09-15T02:55:33.694Z,85.81
2022-09-15T02:58:00.620Z,85.57
2022-09-15T03:00:28.537Z,85.85
2022-09-15T03:02:56.310Z,85.86
2022-09-15T03:05:25.973Z,84.03
2022-09-15T03:07:53.916Z,84.43
2022-09-15T03:10:22.089Z,85.54
2022-09-15T03:12:51.520Z,86.20
2022-09-15T03:15:20.775Z,85.98
2022-09-15T03:17:48.640Z,84.61
2022-09-15T03:20:20.131Z,84.77
2022-09-15T03:22:47.864Z,84.88
2022-09-15T03:25:14.713Z,85.63
2022-09-15T03:27:42.649Z,85.69
2022-09-15T03:30:10.957Z,85.61
2022-09-15T03:32:38.157Z,85.56
2022-09-15T03:35:06.188Z,85.51
2022-09-15T03:37:34.919Z,85.75
2022-09-15T03:40:01.880Z,85.88
2022-09-15T03:42:29.298Z,85.82
2022-09-15T03:44:56.016Z,85.98
2022-09-15T03:47:22.872Z,86.46
2022-09-15T03:49:49.559Z,86.40
2022-09-15T03:52:16.581Z,85.89
2022-09-15T03:54:43.951Z,84.77
2022-09-15T03:57:11.606Z,85.28
2022-09-15T03:59:38.283Z,85.70
2022-09-15T04:02:05.136Z,86.12
2022-09-15T04:04:32.149Z,86.16
2022-09-15T04:06:58.917Z,86.37
2022-09-15T04:09:26.131Z,86.24
2022-09-15T04:11:52.852Z,86.63
2022-09-15T04:14:19.722Z,86.55
2022-09-15T04:16:46.671Z,86.56
2022-09-15T04:19:14.608Z,86.55
2022-09-15T04:21:41.298Z,86.22
2022-09-15T04:24:08.247Z,86.38
2022-09-15T04:26:36.924Z,85.80
2022-09-15T04:29:06.364Z,85.68
2022-09-15T04:31:34.245Z,85.84
2022-09-15T04:34:01.684Z,85.82
2022-09-15T04:36:29.248Z,85.96
2022-09-15T04:38:58.348Z,86.32
2022-09-15T04:41:26.475Z,86.77
2022-09-15T04:43:53.511Z,86.29
2022-09-15T04:46:20.923Z,85.85
2022-09-15T04:48:49.033Z,85.76
2022-09-15T04:51:18.757Z,85.78
2022-09-15T04:53:45.839Z,85.54
2022-09-15T04:56:15.533Z,85.65
2022-09-15T04:58:44.937Z,85.58
2022-09-15T05:01:14.506Z,85.60
2022-09-15T05:03:42.009Z,85.25
2022-09-15T05:06:12.247Z,85.35
2022-09-15T05:08:39.611Z,85.20
2022-09-15T05:11:09.300Z,84.93
2022-09-15T05:13:36.769Z,84.67
2022-09-15T05:16:15.335Z,85.19
2022-09-15T05:18:43.845Z,84.37
2022-09-15T05:21:12.258Z,84.05
2022-09-15T05:23:39.683Z,84.34
2022-09-15T05:26:11.263Z,84.05
2022-09-15T05:28:38.797Z,83.82
2022-09-15T05:31:18.357Z,83.55
2022-09-15T05:33:46.514Z,83.34
2022-09-15T05:36:15.303Z,82.71
2022-09-15T05:38:42.016Z,83.03
2022-09-15T05:41:11.741Z,82.96
2022-09-15T05:43:39.687Z,82.37
2022-09-15T05:46:08.178Z,82.45
2022-09-15T05:48:34.932Z,82.71
2022-09-15T05:51:02.866Z,82.21
2022-09-15T05:53:31.052Z,82.03
2022-09-15T05:55:59.692Z,81.79
2022-09-15T05:58:27.521Z,80.78
2022-09-15T06:00:54.963Z,80.33
2022-09-15T06:03:27.448Z,80.12
2022-09-15T06:06:02.235Z,79.69
2022-09-15T06:08:36.839Z,78.83
2022-09-15T06:11:06.141Z,78.41
2022-09-15T06:13:33.152Z,78.00
2022-09-15T06:16:08.945Z,78.43
2022-09-15T06:18:38.109Z,78.23
2022-09-15T06:21:07.381Z,78.11
2022-09-15T06:23:34.166Z,76.78
2022-09-15T06:26:13.552Z,77.29
2022-09-15T06:28:42.535Z,78.10
2022-09-15T06:31:11.787Z,78.38
2022-09-15T06:33:43.165Z,78.56
2022-09-15T06:36:11.925Z,78.63
2022-09-15T06:38:40.043Z,79.07
2022-09-15T06:41:08.123Z,79.29
2022-09-15T06:43:36.268Z,78.56
2022-09-15T06:46:11.787Z,78.40
2022-09-15T06:48:39.951Z,78.45
2022-09-15T06:51:09.355Z,78.23
2022-09-15T06:53:38.233Z,77.82
2022-09-15T06:56:08.063Z,77.79
2022-09-15T06:58:36.341Z,77.33
2022-09-15T07:01:10.084Z,77.48
2022-09-15T07:03:39.167Z,77.91
2022-09-15T07:06:07.665Z,77.42
2022-09-15T07:08:34.542Z,77.73
2022-09-15T07:11:01.607Z,77.86
2022-09-15T07:13:28.374Z,77.51
2022-09-15T07:15:58.133Z,77.72
2022-09-15T07:18:26.053Z,77.25
2022-09-15T07:20:57.978Z,77.56
2022-09-15T07:23:24.863Z,77.80
2022-09-15T07:25:51.641Z,77.93
2022-09-15T07:28:19.422Z,77.40
2022-09-15T07:30:51.250Z,76.85
2022-09-15T07:33:18.238Z,75.81
2022-09-15T07:35:45.155Z,75.62
2022-09-15T07:38:11.995Z,74.11
2022-09-15T07:40:38.788Z,72.68
2022-09-15T07:43:06.574Z,72.83
2022-09-15T07:45:33.765Z,71.45
2022-09-15T07:48:00.848Z,71.18
2022-09-15T07:50:27.526Z,71.55
2022-09-15T07:52:57.400Z,71.62
2022-09-15T07:55:24.350Z,70.18
2022-09-15T07:57:59.488Z,67.92
2022-09-15T08:00:27.274Z,67.50
2022-09-15T08:02:54.524Z,67.05
2022-09-15T08:05:21.909Z,67.19
2022-09-15T08:07:48.933Z,66.63
2022-09-15T08:10:15.857Z,66.59
2022-09-15T08:12:42.855Z,65.93
2022-09-15T08:15:09.747Z,66.93
2022-09-15T08:17:36.618Z,67.74
2022-09-15T08:20:03.587Z,68.15
2022-09-15T08:22:30.588Z,69.13
2022-09-15T08:24:57.314Z,67.78
2022-09-15T08:27:24.103Z,68.18
2022-09-15T08:29:51.920Z,67.28
2022-09-15T08:32:19.087Z,66.52
2022-09-15T08:34:46.128Z,66.14
2022-09-15T08:37:13.012Z,64.83
2022-09-15T08:39:40.067Z,65.18
2022-09-15T08:42:07.603Z,64.51
2022-09-15T08:44:53.157Z,64.45
2022-09-15T08:47:29.874Z,64.08
2022-09-15T08:50:01.630Z,62.58
2022-09-15T08:52:58.169Z,59.75
2022-09-15T08:55:41.815Z,59.27
2022-09-15T08:58:16.738Z,58.78
2022-09-15T09:00:45.662Z,58.73
2022-09-15T09:04:03.135Z,59.69
2022-09-15T09:06:42.315Z,59.21
2022-09-15T09:09:34.151Z,59.00
2022-09-15T09:12:19.319Z,57.89
2022-09-15T09:15:16.872Z,56.41
2022-09-15T09:18:17.593Z,57.01
2022-09-15T09:21:11.958Z,57.35
2022-09-15T09:23:54.666Z,56.29
2022-09-15T09:26:21.445Z,55.36
2022-09-15T09:28:59.458Z,54.44
2022-09-15T09:31:31.413Z,53.27
2022-09-15T09:34:03.020Z,53.09
2022-09-15T09:36:29.740Z,52.94
2022-09-15T09:39:02.158Z,53.55
2022-09-15T09:41:37.191Z,53.83
2022-09-15T09:44:10.299Z,54.39
2022-09-15T09:46:37.296Z,54.42
2022-09-15T09:49:37.312Z,55.24
2022-09-15T09:52:05.151Z,56.56
2022-09-15T09:54:33.939Z,57.78
2022-09-15T09:57:12.947Z,57.11
2022-09-15T09:59:45.114Z,55.72
2022-09-15T10:02:11.923Z,55.37
2022-09-15T10:04:40.198Z,54.66
2022-09-15T10:07:07.910Z,56.39
2022-09-15T10:09:37.264Z,55.49
2022-09-15T10:12:05.966Z,55.79
2022-09-15T10:14:41.707Z,57.19
2022-09-15T10:17:16.760Z,57.51
2022-09-15T10:19:55.252Z,58.08
2022-09-15T10:22:41.469Z,57.67
2022-09-15T10:25:44.206Z,57.14
2022-09-15T10:28:23.353Z,56.24
2022-09-15T10:31:11.929Z,57.01
2022-09-15T10:33:43.502Z,56.66
2022-09-15T10:36:24.148Z,56.18
2022-09-15T10:39:25.535Z,56.08
2022-09-15T10:42:11.006Z,55.96
2022-09-15T10:44:52.762Z,54.98
2022-09-15T10:47:44.660Z,55.55
2022-09-15T10:50:43.455Z,55.59
2022-09-15T10:53:47.339Z,55.31
2022-09-15T10:56:49.040Z,56.12
2022-09-15T10:59:38.296Z,56.69
2022-09-15T11:02:23.685Z,56.33
2022-09-15T11:05:20.380Z,56.03
2022-09-15T11:07:54.280Z,57.12
2022-09-15T11:10:41.959Z,56.60
2022-09-15T11:13:28.892Z,55.84
2022-09-15T11:15:58.638Z,56.25
2022-09-15T11:18:40.761Z,55.82
2022-09-15T11:21:23.013Z,56.65
2022-09-15T11:23:52.897Z,57.21
2022-09-15T11:26:44.528Z,57.77
2022-09-15T11:29:27.092Z,57.14
2022-09-15T11:32:07.732Z,57.84
2022-09-15T11:34:41.464Z,57.99
2022-09-15T11:37:43.587Z,57.15
2022-09-15T11:40:20.727Z,57.60
2022-09-15T11:43:01.202Z,57.79
2022-09-15T11:45:38.173Z,58.19
2022-09-15T11:48:39.724Z,57.91
2022-09-15T11:51:07.305Z,58.59
2022-09-15T11:53:42.641Z,58.53
2022-09-15T11:56:24.784Z,59.09
2022-09-15T11:59:00.218Z,59.54
2022-09-15T12:01:42.301Z,59.83
2022-09-15T12:04:17.370Z,60.04
2022-09-15T12:07:04.592Z,60.31
2022-09-15T12:09:31.569Z,60.53
2022-09-15T12:12:14.306Z,60.24
2022-09-15T12:14:46.736Z,60.11
2022-09-15T12:17:26.214Z,59.96
2022-09-15T12:20:04.480Z,59.50
2022-09-15T12:22:34.396Z,57.66
2022-09-15T12:25:16.589Z,57.12
2022-09-15T12:27:43.762Z,56.91
2022-09-15T12:30:41.409Z,56.23
2022-09-15T12:33:54.697Z,55.50
2022-09-15T12:36:37.134Z,55.53
2022-09-15T12:39:21.116Z,56.00
2022-09-15T12:41:57.036Z,56.90
2022-09-15T12:44:36.170Z,56.70
2022-09-15T12:47:07.747Z,56.72
2022-09-15T12:49:42.221Z,55.67
2022-09-15T12:52:11.194Z,54.92
2022-09-15T12:54:45.506Z,55.02
2022-09-15T12:57:28.478Z,54.84
2022-09-15T13:00:23.397Z,54.89
2022-09-15T13:02:52.137Z,53.56
2022-09-15T13:05:39.034Z,52.74
2022-09-15T13:08:15.748Z,52.57
2022-09-15T13:11:13.197Z,51.89
2022-09-15T13:13:46.402Z,51.29
2022-09-15T13:16:18.618Z,51.04
2022-09-15T13:18:47.274Z,51.19
2022-09-15T13:21:17.605Z,50.61
2022-09-15T13:23:51.916Z,50.19
2022-09-15T13:26:25.618Z,50.75
2022-09-15T13:28:56.236Z,51.17
2022-09-15T13:31:55.408Z,50.99
2022-09-15T13:35:05.089Z,51.11
2022-09-15T13:38:20.025Z,51.75
2022-09-15T13:41:18.552Z,51.59
2022-09-15T13:44:10.234Z,50.94
2022-09-15T13:47:01.639Z,51.04
2022-09-15T13:49:45.748Z,50.32
2022-09-15T13:52:18.476Z,50.24
2022-09-15T13:55:07.884Z,49.49
2022-09-15T14:00:29.778Z,50.06
2022-09-15T14:03:05.413Z,50.62
2022-09-15T14:05:37.448Z,50.31
2022-09-15T14:08:09.682Z,50.97
2022-09-15T14:10:42.024Z,51.20
2022-09-15T14:13:13.583Z,50.66
2022-09-15T14:15:40.637Z,50.81
2022-09-15T14:18:20.228Z,49.91
2022-09-15T14:20:58.187Z,50.64
2022-09-15T14:23:24.899Z,50.61
2022-09-15T14:25:53.454Z,50.98
2022-09-15T14:28:34.893Z,50.93
2022-09-15T14:31:02.863Z,49.80
2022-09-15T14:33:38.557Z,48.76
2022-09-15T14:36:23.139Z,48.66
2022-09-15T14:39:09.028Z,49.63
2022-09-15T14:41:39.266Z,49.52
2022-09-15T14:47:30.658Z,49.53
2022-09-15T14:50:14.911Z,49.55
2022-09-15T14:52:45.397Z,49.24
2022-09-15T14:55:24.920Z,49.72
2022-09-15T14:57:55.718Z,50.57
2022-09-15T15:00:27.081Z,50.58
2022-09-15T15:03:18.158Z,50.47
2022-09-15T15:06:02.860Z,50.60
2022-09-15T15:08:42.519Z,50.54
2022-09-15T15:11:11.175Z,50.03
2022-09-15T15:13:42.723Z,50.43
2022-09-15T15:16:19.024Z,49.39
2022-09-15T15:18:46.399Z,49.62
2022-09-15T15:21:44.622Z,49.89
2022-09-15T15:24:22.495Z,50.04
2022-09-15T15:26:50.798Z,50.50
2022-09-15T15:29:43.611Z,50.75
2022-09-15T15:32:14.109Z,50.55
2022-09-15T15:34:48.627Z,50.82
2022-09-15T15:37:27.878Z,50.74
2022-09-15T15:39:57.331Z,50.28
2022-09-15T15:42:26.216Z,50.72
2022-09-15T15:45:23.575Z,50.97
2022-09-15T15:47:51.045Z,50.67
2022-09-15T15:50:21.007Z,50.59
2022-09-15T15:52:51.849Z,50.72
2022-09-15T15:55:21.591Z,50.46
2022-09-15T15:57:54.339Z,50.45
2022-09-15T16:00:44.220Z,50.12
2022-09-15T16:03:11.648Z,50.52
2022-09-15T16:05:40.899Z,50.64
2022-09-15T16:08:15.334Z,50.68
2022-09-15T16:10:46.430Z,50.89
2022-09-15T16:13:16.380Z,50.55
2022-09-15T16:15:44.255Z,50.70
2022-09-15T16:18:12.328Z,50.38
2022-09-15T16:20:40.319Z,50.93
2022-09-15T16:23:07.691Z,51.00
2022-09-15T16:25:40.717Z,51.10
2022-09-15T16:28:08.214Z,51.22
2022-09-15T16:30:35.310Z,51.28
2022-09-15T16:33:02.290Z,51.87
2022-09-15T16:35:43.080Z,51.99
2022-09-15T16:38:09.972Z,52.39
2022-09-15T16:40:39.771Z,52.58
2022-09-15T16:43:12.522Z,52.42
2022-09-15T16:45:40.941Z,52.30
2022-09-15T16:48:09.453Z,52.30
2022-09-15T16:50:39.798Z,52.65
2022-09-15T16:53:20.781Z,52.45
2022-09-15T16:55:51.397Z,52.75
2022-09-15T16:58:19.531Z,52.97
2022-09-15T17:00:48.499Z,53.15
2022-09-15T17:03:24.140Z,53.65
2022-09-15T17:05:52.947Z,53.08
2022-09-15T17:08:22.944Z,52.99
2022-09-15T17:10:50.417Z,52.73
2022-09-15T17:13:23.966Z,52.69
2022-09-15T17:15:56.335Z,52.44
2022-09-15T17:18:23.617Z,52.53
2022-09-15T17:20:50.937Z,52.62
2022-09-15T17:23:28.073Z,52.75
2022-09-15T17:25:58.495Z,52.28
2022-09-15T17:28:27.610Z,52.73
2022-09-15T17:31:02.303Z,52.21
2022-09-15T17:33:31.276Z,52.54
2022-09-15T17:35:58.943Z,52.70
2022-09-15T17:38:25.912Z,52.43
2022-09-15T17:40:55.363Z,52.65
2022-09-15T17:43:27.831Z,52.36
2022-09-15T17:45:55.557Z,52.67
2022-09-15T17:48:23.203Z,52.64
2022-09-15T17:50:50.656Z,51.97
2022-09-15T17:53:23.665Z,52.91
2022-09-15T17:55:50.949Z,53.57
2022-09-15T17:58:18.509Z,53.54
2022-09-15T18:00:46.164Z,53.89
2022-09-15T18:03:28.025Z,54.60
2022-09-15T18:05:59.633Z,55.03
2022-09-15T18:08:27.617Z,54.83
2022-09-15T18:10:54.865Z,55.51
2022-09-15T18:13:24.891Z,54.40
2022-09-15T18:15:52.075Z,54.07
2022-09-15T18:18:22.975Z,54.14
2022-09-15T18:20:51.700Z,54.57
2022-09-15T18:23:21.811Z,54.91
2022-09-15T18:25:49.914Z,54.91
2022-09-15T18:28:18.387Z,54.97
2022-09-15T18:30:48.071Z,54.60
2022-09-15T18:33:22.484Z,55.01
2022-09-15T18:35:51.878Z,54.86
2022-09-15T18:38:19.224Z,55.54
2022-09-15T18:40:55.430Z,56.07
2022-09-15T18:43:25.331Z,55.23
2022-09-15T18:45:55.230Z,55.13
2022-09-15T18:48:22.018Z,55.12
2022-09-15T18:50:49.036Z,55.11
2022-09-15T18:53:15.789Z,55.39
2022-09-15T18:55:42.832Z,55.06
2022-09-15T18:58:11.055Z,55.03
2022-09-15T19:00:37.872Z,55.01
2022-09-15T19:03:09.440Z,55.27
2022-09-15T19:05:36.642Z,55.18
2022-09-15T19:08:04.136Z,55.51
2022-09-15T19:10:31.456Z,54.02
2022-09-15T19:12:58.357Z,54.80
2022-09-15T19:15:25.551Z,59.01
2022-09-15T19:17:52.453Z,60.96
2022-09-15T19:20:19.839Z,63.15
2022-09-15T19:22:47.631Z,64.16
2022-09-15T19:25:15.009Z,65.43
2022-09-15T19:27:41.893Z,65.04
2022-09-15T19:30:10.370Z,64.90
2022-09-15T19:32:38.462Z,65.26
2022-09-15T19:35:06.327Z,65.27
2022-09-15T19:37:37.450Z,65.73
2022-09-15T19:40:08.804Z,64.46
2022-09-15T19:42:36.568Z,64.91
2022-09-15T19:45:04.105Z,65.72
2022-09-15T19:47:31.124Z,66.13
2022-09-15T19:49:58.147Z,66.54
2022-09-15T19:52:25.116Z,66.22
2022-09-15T19:54:51.779Z,66.92
2022-09-15T19:57:18.952Z,67.09
2022-09-15T19:59:45.703Z,68.27
2022-09-15T20:02:13.435Z,67.43
2022-09-15T20:04:40.506Z,67.63
2022-09-15T20:07:07.489Z,67.86
2022-09-15T20:09:34.635Z,67.88
2022-09-15T20:12:03.493Z,68.58
2022-09-15T20:14:31.169Z,68.48
2022-09-15T20:17:00.986Z,69.27
2022-09-15T20:19:29.457Z,69.29
2022-09-15T20:21:56.202Z,69.41
2022-09-15T20:24:24.133Z,69.62
2022-09-15T20:26:51.450Z,70.44
2022-09-15T20:29:19.118Z,69.53
2022-09-15T20:31:46.342Z,70.18
2022-09-15T20:34:13.656Z,70.34
2022-09-15T20:36:40.918Z,69.77
2022-09-15T20:39:13.101Z,70.09
2022-09-15T20:41:42.412Z,70.07
2022-09-15T20:44:09.587Z,69.85
2022-09-15T20:46:36.546Z,69.00
2022-09-15T20:49:03.669Z,69.19
2022-09-15T20:51:31.967Z,69.66
2022-09-15T20:54:00.665Z,69.95
2022-09-15T20:56:30.022Z,70.40
2022-09-15T20:58:58.627Z,69.93
2022-09-15T21:01:28.563Z,69.11
2022-09-15T21:03:55.755Z,69.22
2022-09-15T21:06:25.221Z,69.65
2022-09-15T21:08:53.392Z,69.20
2022-09-15T21:11:21.475Z,69.22
2022-09-15T21:13:49.506Z,70.12
2022-09-15T21:16:18.570Z,70.31
2022-09-15T21:18:45.939Z,68.99
2022-09-15T21:21:15.610Z,68.85
2022-09-15T21:23:47.807Z,68.58
2022-09-15T21:26:14.406Z,68.44
2022-09-15T21:28:43.535Z,69.05
2022-09-15T21:31:12.739Z,68.78
2022-09-15T21:33:39.976Z,69.00
2022-09-15T21:36:18.113Z,68.39
2022-09-15T21:38:45.759Z,68.98
2022-09-15T21:41:15.224Z,69.63
2022-09-15T21:43:47.867Z,69.87
2022-09-15T21:46:17.120Z,70.53
2022-09-15T21:48:44.468Z,70.21
2022-09-15T21:51:15.357Z,70.30
2022-09-15T21:53:43.118Z,70.27
2022-09-15T21:56:12.049Z,70.32
2022-09-15T21:58:42.903Z,70.48
2022-09-15T22:01:24.644Z,69.87
2022-09-15T22:03:57.068Z,69.35
2022-09-15T22:06:33.450Z,68.79
2022-09-15T22:09:01.889Z,68.80
2022-09-15T22:11:29.557Z,69.40
2022-09-15T22:13:56.870Z,69.56
2022-09-15T22:16:25.022Z,70.04
2022-09-15T22:18:52.368Z,69.97
2022-09-15T22:21:23.755Z,69.59
2022-09-15T22:23:51.910Z,69.41
2022-09-15T22:26:31.758Z,69.70
2022-09-15T22:28:59.782Z,69.49
2022-09-15T22:31:28.137Z,68.57
2022-09-15T22:33:55.753Z,67.45
2022-09-15T22:36:29.920Z,67.02
2022-09-15T22:39:05.656Z,66.80
2022-09-15T22:41:35.761Z,66.89
2022-09-15T22:44:03.805Z,67.43
2022-09-15T22:46:30.527Z,66.72
2022-09-15T22:48:57.729Z,65.78
2022-09-15T22:51:24.671Z,65.63
2022-09-15T22:53:56.837Z,65.72
2022-09-15T22:56:25.226Z,66.10
2022-09-15T22:58:51.967Z,66.13
2022-09-15T23:01:21.150Z,65.39
2022-09-15T23:03:56.685Z,65.32
2022-09-15T23:06:27.120Z,65.41
2022-09-15T23:08:56.503Z,65.89
2022-09-15T23:11:24.971Z,65.30
2022-09-15T23:13:55.514Z,64.77
2022-09-15T23:16:24.523Z,65.23
2022-09-15T23:18:52.443Z,64.83
2022-09-15T23:21:22.956Z,64.84
2022-09-15T23:23:50.569Z,64.52
2022-09-15T23:26:19.800Z,65.66
2022-09-15T23:28:50.295Z,66.19
2022-09-15T23:31:17.981Z,66.83
2022-09-15T23:33:44.924Z,67.24
2022-09-15T23:36:17.500Z,67.48
2022-09-15T23:38:45.591Z,67.31
2022-09-15T23:41:14.277Z,66.68
2022-09-15T23:43:41.489Z,66.46
2022-09-15T23:46:11.021Z,66.62
2022-09-15T23:48:38.356Z,66.48
2022-09-15T23:51:05.606Z,66.64
2022-09-15T23:53:32.396Z,67.04
2022-09-15T23:56:00.557Z,66.50
2022-09-15T23:58:27.725Z,66.56
